createdAt,value
2019-03-27T00:01:12.835Z,18.12
2019-03-27T00:03:40.189Z,18.42
2019-03-27T00:06:07.531Z,18.77
2019-03-27T00:08:34.849Z,19.65
2019-03-27T00:11:02.190Z,19.60
2019-03-27T00:13:29.504Z,20.70
2019-03-27T00:15:56.871Z,22.20
2019-03-27T00:18:24.197Z,21.35
2019-03-27T00:20:51.534Z,21.62
2019-03-27T00:23:18.883Z,22.25
2019-03-27T00:25:46.118Z,21.42
2019-03-27T00:28:13.349Z,20.70
2019-03-27T00:30:40.578Z,22.10
2019-03-27T00:33:07.926Z,20.72
2019-03-27T00:35:35.244Z,21.48
2019-03-27T00:38:02.675Z,22.87
2019-03-27T00:40:29.991Z,23.83
2019-03-27T00:42:57.331Z,24.47
2019-03-27T00:45:27.001Z,23.77
2019-03-27T00:47:53.890Z,24.80
2019-03-27T00:50:21.228Z,24.15
2019-03-27T00:52:48.560Z,26.33
2019-03-27T00:55:16.004Z,27.07
2019-03-27T00:57:43.333Z,27.40
2019-03-27T01:00:18.832Z,25.77
2019-03-27T01:02:46.170Z,22.37
2019-03-27T01:05:13.494Z,27.95
2019-03-27T01:07:40.840Z,29.77
2019-03-27T01:10:08.171Z,25.97
2019-03-27T01:12:35.397Z,24.60
2019-03-27T01:15:03.067Z,22.75
2019-03-27T01:17:30.698Z,22.82
2019-03-27T01:19:57.865Z,25.12
2019-03-27T01:22:25.106Z,24.07
2019-03-27T01:24:52.433Z,25.97
2019-03-27T01:27:19.666Z,20.70
2019-03-27T01:29:46.979Z,23.35
2019-03-27T01:32:14.316Z,23.62
2019-03-27T01:34:41.535Z,23.30
2019-03-27T01:37:08.879Z,23.10
2019-03-27T01:39:36.190Z,27.50
2019-03-27T01:42:03.533Z,28.90
2019-03-27T01:44:30.750Z,24.77
2019-03-27T01:46:58.083Z,26.70
2019-03-27T01:49:25.287Z,26.87
2019-03-27T01:51:52.511Z,28.10
2019-03-27T01:54:19.662Z,30.43
2019-03-27T01:56:46.974Z,27.52
2019-03-27T01:59:14.302Z,27.62
2019-03-27T02:01:41.513Z,26.05
2019-03-27T02:04:08.654Z,27.60
2019-03-27T02:06:36.005Z,27.75
2019-03-27T02:09:04.633Z,28.60
2019-03-27T02:11:31.846Z,26.07
2019-03-27T02:13:59.097Z,26.23
2019-03-27T02:16:26.333Z,24.52
2019-03-27T02:18:55.580Z,24.72
2019-03-27T02:21:23.459Z,25.82
2019-03-27T02:23:50.792Z,25.65
2019-03-27T02:26:18.113Z,26.30
2019-03-27T02:28:45.357Z,26.35
2019-03-27T02:31:12.671Z,26.80
2019-03-27T02:33:39.893Z,28.85
2019-03-27T02:36:07.126Z,28.40
2019-03-27T02:38:34.367Z,30.90
2019-03-27T02:41:01.695Z,34.30
2019-03-27T02:43:29.011Z,33.30
2019-03-27T02:45:56.350Z,40.80
2019-03-27T02:48:23.702Z,36.95
2019-03-27T02:50:51.009Z,38.08
2019-03-27T02:53:18.341Z,38.90
2019-03-27T02:55:45.571Z,38.45
2019-03-27T02:58:12.905Z,38.85
2019-03-27T03:00:40.227Z,37.50
2019-03-27T03:03:07.551Z,38.83
2019-03-27T03:05:34.871Z,34.35
2019-03-27T03:08:02.100Z,35.65
2019-03-27T03:10:29.314Z,35.35
2019-03-27T03:12:56.960Z,36.45
2019-03-27T03:15:24.289Z,37.65
2019-03-27T03:17:51.535Z,37.50
2019-03-27T03:20:18.839Z,40.12
2019-03-27T03:22:46.043Z,38.95
2019-03-27T03:25:13.708Z,36.77
2019-03-27T03:27:41.042Z,48.45
2019-03-27T03:30:08.643Z,45.70
2019-03-27T03:32:35.830Z,41.60
2019-03-27T03:35:03.276Z,49.33
2019-03-27T03:37:30.473Z,56.85
2019-03-27T03:39:57.590Z,58.28
2019-03-27T03:42:24.898Z,53.25
2019-03-27T03:44:52.149Z,59.45
2019-03-27T03:47:19.655Z,46.48
2019-03-27T03:49:46.782Z,45.38
2019-03-27T03:52:14.189Z,42.13
2019-03-27T03:54:41.529Z,39.00
2019-03-27T03:57:09.039Z,38.10
2019-03-27T03:59:36.536Z,42.13
2019-03-27T04:02:03.843Z,43.87
2019-03-27T04:04:32.478Z,43.33
2019-03-27T04:06:59.801Z,52.05
2019-03-27T04:09:27.041Z,49.10
2019-03-27T04:11:54.378Z,46.08
2019-03-27T04:14:21.662Z,44.85
2019-03-27T04:16:48.989Z,43.75
2019-03-27T04:19:16.626Z,49.73
2019-03-27T04:21:43.944Z,48.98
2019-03-27T04:24:11.196Z,46.00
2019-03-27T04:26:38.495Z,45.73
2019-03-27T04:29:05.827Z,45.75
2019-03-27T04:31:32.944Z,46.00
2019-03-27T04:34:00.186Z,42.67
2019-03-27T04:36:27.772Z,39.78
2019-03-27T04:38:55.089Z,41.53
2019-03-27T04:41:22.427Z,43.05
2019-03-27T04:43:49.663Z,46.08
2019-03-27T04:46:16.865Z,41.18
2019-03-27T04:48:44.195Z,42.10
2019-03-27T04:51:11.320Z,42.08
2019-03-27T04:53:38.652Z,37.85
2019-03-27T04:56:06.015Z,39.67
2019-03-27T04:58:33.134Z,40.60
2019-03-27T05:01:00.475Z,42.33
2019-03-27T05:03:27.799Z,43.35
2019-03-27T05:05:55.132Z,40.35
2019-03-27T05:08:22.463Z,41.68
2019-03-27T05:10:49.800Z,40.15
2019-03-27T05:13:17.165Z,37.90
2019-03-27T05:15:44.509Z,41.45
2019-03-27T05:18:11.728Z,46.35
2019-03-27T05:20:38.982Z,45.63
2019-03-27T05:23:06.280Z,52.33
2019-03-27T05:25:33.711Z,48.85
2019-03-27T05:28:01.036Z,45.35
2019-03-27T05:30:28.590Z,43.52
2019-03-27T05:32:56.454Z,41.00
2019-03-27T05:35:23.808Z,38.78
2019-03-27T05:37:51.141Z,35.43
2019-03-27T05:40:18.484Z,34.92
2019-03-27T05:42:59.774Z,35.48
2019-03-27T05:45:15.035Z,34.25
2019-03-27T05:47:42.361Z,32.73
2019-03-27T05:50:11.056Z,32.05
2019-03-27T05:52:38.487Z,31.65
2019-03-27T05:55:06.435Z,31.45
2019-03-27T05:57:33.742Z,30.00
2019-03-27T06:00:01.076Z,29.30
2019-03-27T06:02:28.288Z,31.33
2019-03-27T06:04:55.521Z,27.87
2019-03-27T06:07:22.747Z,29.23
2019-03-27T06:09:50.080Z,27.75
2019-03-27T06:12:17.285Z,27.32
2019-03-27T06:14:44.525Z,29.30
2019-03-27T06:17:11.841Z,26.73
2019-03-27T06:19:39.054Z,26.87
2019-03-27T06:22:06.256Z,26.10
2019-03-27T06:24:33.478Z,25.92
2019-03-27T06:27:00.774Z,27.35
2019-03-27T06:29:28.006Z,25.40
2019-03-27T06:31:55.299Z,27.40
2019-03-27T06:34:22.522Z,26.60
2019-03-27T06:36:49.822Z,25.02
2019-03-27T06:39:17.049Z,27.00
2019-03-27T06:41:44.342Z,27.17
2019-03-27T06:44:11.660Z,26.65
2019-03-27T06:46:38.967Z,26.48
2019-03-27T06:49:06.265Z,26.57
2019-03-27T06:51:40.072Z,26.65
2019-03-27T06:54:02.925Z,28.12
2019-03-27T06:56:30.150Z,27.02
2019-03-27T06:58:57.458Z,26.90
2019-03-27T07:01:24.704Z,27.10
2019-03-27T07:03:51.940Z,26.25
2019-03-27T07:06:19.260Z,26.33
2019-03-27T07:08:46.585Z,25.97
2019-03-27T07:11:13.928Z,24.90
2019-03-27T07:13:41.231Z,25.80
2019-03-27T07:16:08.554Z,25.08
2019-03-27T07:18:40.258Z,27.20
2019-03-27T07:21:04.899Z,24.45
2019-03-27T07:23:32.144Z,24.00
2019-03-27T07:25:59.367Z,25.10
2019-03-27T07:28:26.670Z,27.25
2019-03-27T07:30:53.996Z,24.72
2019-03-27T07:33:21.295Z,23.52
2019-03-27T07:35:48.619Z,23.70
2019-03-27T07:38:15.819Z,24.00
2019-03-27T07:40:43.135Z,22.75
2019-03-27T07:43:10.436Z,21.48
2019-03-27T07:45:37.778Z,26.07
2019-03-27T07:48:04.972Z,23.62
2019-03-27T07:50:32.314Z,25.25
2019-03-27T07:52:59.601Z,21.42
2019-03-27T07:55:26.857Z,23.05
2019-03-27T07:57:54.166Z,21.97
2019-03-27T08:00:22.480Z,28.90
2019-03-27T08:02:49.771Z,23.10
2019-03-27T08:05:17.093Z,22.05
2019-03-27T08:07:44.387Z,23.05
2019-03-27T08:10:12.012Z,22.70
2019-03-27T08:12:39.317Z,24.40
2019-03-27T08:15:07.571Z,22.07
2019-03-27T08:17:34.875Z,23.32
2019-03-27T08:20:02.434Z,19.77
2019-03-27T08:22:29.793Z,24.80
2019-03-27T08:24:57.104Z,21.77
2019-03-27T08:27:24.426Z,22.50
2019-03-27T08:29:51.736Z,22.25
2019-03-27T08:32:19.059Z,20.10
2019-03-27T08:34:46.274Z,21.20
2019-03-27T08:37:13.587Z,20.37
2019-03-27T08:39:40.796Z,19.05
2019-03-27T08:42:08.316Z,21.00
2019-03-27T08:44:35.520Z,17.82
2019-03-27T08:47:02.845Z,17.23
2019-03-27T08:49:30.151Z,15.28
2019-03-27T08:51:57.382Z,15.65
2019-03-27T08:54:24.719Z,17.35
2019-03-27T08:56:52.033Z,15.18
2019-03-27T08:59:19.323Z,14.93
2019-03-27T09:01:46.685Z,14.60
2019-03-27T09:04:13.991Z,14.50
2019-03-27T09:06:41.306Z,13.50
2019-03-27T09:09:08.744Z,14.33
2019-03-27T09:11:36.462Z,12.53
2019-03-27T09:14:03.771Z,11.50
2019-03-27T09:16:31.097Z,11.68
2019-03-27T09:18:58.403Z,11.78
2019-03-27T09:21:25.733Z,12.63
2019-03-27T09:23:52.943Z,11.88
2019-03-27T09:26:20.176Z,10.58
2019-03-27T09:28:47.478Z,10.72
2019-03-27T09:31:14.806Z,10.13
2019-03-27T09:33:42.179Z,10.25
2019-03-27T09:36:09.741Z,9.50
2019-03-27T09:38:37.271Z,9.80
2019-03-27T09:41:04.583Z,9.95
2019-03-27T09:43:31.956Z,10.93
2019-03-27T09:45:59.310Z,10.38
2019-03-27T09:48:27.484Z,10.20
2019-03-27T09:50:54.809Z,9.38
2019-03-27T09:53:22.142Z,10.38
2019-03-27T09:55:49.468Z,9.15
2019-03-27T09:58:16.782Z,10.08
2019-03-27T10:01:09.113Z,11.30
2019-03-27T10:03:36.464Z,9.58
2019-03-27T10:06:03.798Z,8.78
2019-03-27T10:08:31.127Z,7.83
2019-03-27T10:10:58.528Z,9.13
2019-03-27T10:13:25.849Z,9.05
2019-03-27T10:15:53.150Z,7.95
2019-03-27T10:18:20.486Z,7.60
2019-03-27T10:20:47.787Z,6.95
2019-03-27T10:23:15.112Z,7.05
2019-03-27T10:25:42.313Z,7.60
2019-03-27T10:28:09.616Z,7.33
2019-03-27T10:30:36.915Z,6.45
2019-03-27T10:33:04.236Z,7.37
2019-03-27T10:35:31.545Z,6.55
2019-03-27T10:37:58.860Z,7.87
2019-03-27T10:40:26.164Z,7.60
2019-03-27T10:42:53.291Z,7.85
2019-03-27T10:45:20.594Z,7.75
2019-03-27T10:47:47.907Z,6.70
2019-03-27T10:50:36.280Z,7.12
2019-03-27T10:53:03.607Z,7.67
2019-03-27T10:55:34.351Z,8.15
2019-03-27T10:58:00.161Z,8.15
2019-03-27T11:00:27.381Z,7.97
2019-03-27T11:02:54.737Z,8.28
2019-03-27T11:05:22.048Z,6.70
2019-03-27T11:07:49.369Z,6.80
2019-03-27T11:10:16.672Z,5.95
2019-03-27T11:12:43.919Z,6.95
2019-03-27T11:15:11.729Z,5.97
2019-03-27T11:17:39.046Z,6.45
2019-03-27T11:20:07.004Z,7.30
2019-03-27T11:22:34.346Z,7.28
2019-03-27T11:25:01.658Z,6.30
2019-03-27T11:27:29.008Z,6.03
2019-03-27T11:29:56.314Z,6.53
2019-03-27T11:32:23.678Z,6.58
2019-03-27T11:34:50.987Z,5.75
2019-03-27T11:37:18.190Z,6.10
2019-03-27T11:39:45.418Z,5.30
2019-03-27T11:42:12.627Z,4.62
2019-03-27T11:44:39.975Z,4.70
2019-03-27T11:47:07.288Z,5.00
2019-03-27T11:49:34.516Z,5.10
2019-03-27T11:52:01.832Z,5.53
2019-03-27T11:54:29.088Z,6.12
2019-03-27T11:56:56.398Z,5.22
2019-03-27T11:59:23.718Z,4.92
2019-03-27T12:01:50.940Z,5.30
2019-03-27T12:04:18.272Z,6.12
2019-03-27T12:06:45.585Z,6.28
2019-03-27T12:09:12.803Z,5.75
2019-03-27T12:11:40.117Z,6.22
2019-03-27T12:14:07.453Z,6.15
2019-03-27T12:16:34.668Z,5.78
2019-03-27T12:19:01.903Z,5.70
2019-03-27T12:21:29.235Z,4.40
2019-03-27T12:23:56.561Z,4.15
2019-03-27T12:26:23.880Z,4.42
2019-03-27T12:28:51.216Z,5.00
2019-03-27T12:31:18.518Z,4.50
2019-03-27T12:33:45.749Z,5.33
2019-03-27T12:36:13.071Z,4.65
2019-03-27T12:38:40.405Z,6.50
2019-03-27T12:41:07.709Z,4.75
2019-03-27T12:43:35.045Z,6.08
2019-03-27T12:46:02.478Z,5.30
2019-03-27T12:48:29.799Z,4.97
2019-03-27T12:50:57.115Z,5.05
2019-03-27T12:53:24.441Z,5.35
2019-03-27T12:55:51.760Z,4.42
2019-03-27T12:58:18.965Z,4.53
2019-03-27T13:00:46.292Z,5.20
2019-03-27T13:03:13.595Z,4.92
2019-03-27T13:05:40.935Z,4.30
2019-03-27T13:08:08.214Z,4.47
2019-03-27T13:10:35.639Z,4.55
2019-03-27T13:13:02.954Z,4.50
2019-03-27T13:15:30.282Z,4.03
2019-03-27T13:17:57.584Z,4.47
2019-03-27T13:20:24.911Z,4.72
2019-03-27T13:22:52.113Z,3.92
2019-03-27T13:25:19.443Z,5.03
2019-03-27T13:27:47.640Z,4.95
2019-03-27T13:30:15.144Z,4.92
2019-03-27T13:32:42.473Z,4.58
2019-03-27T13:35:10.192Z,5.00
2019-03-27T13:37:37.505Z,5.42
2019-03-27T13:40:05.975Z,5.08
2019-03-27T13:42:33.286Z,4.80
2019-03-27T13:45:00.997Z,4.20
2019-03-27T13:47:28.305Z,4.40
2019-03-27T13:49:55.636Z,4.50
2019-03-27T13:52:22.838Z,4.67
2019-03-27T13:54:50.196Z,5.17
2019-03-27T13:57:17.401Z,5.47
2019-03-27T13:59:44.628Z,5.58
2019-03-27T14:02:11.933Z,4.85
2019-03-27T14:04:39.283Z,4.65
2019-03-27T14:07:06.591Z,4.78
2019-03-27T14:09:33.914Z,6.20
2019-03-27T14:12:01.231Z,4.87
2019-03-27T14:14:28.564Z,4.90
2019-03-27T14:16:55.864Z,5.28
2019-03-27T14:19:23.182Z,5.83
2019-03-27T14:21:54.946Z,5.70
2019-03-27T14:24:20.313Z,8.47
2019-03-27T14:26:47.519Z,5.80
2019-03-27T14:29:14.748Z,5.20
2019-03-27T14:31:42.071Z,5.90
2019-03-27T14:34:09.374Z,5.62
2019-03-27T14:36:36.712Z,8.45
2019-03-27T14:39:06.372Z,5.95
2019-03-27T14:41:33.609Z,5.45
2019-03-27T14:44:00.958Z,5.25
2019-03-27T14:46:28.288Z,6.92
2019-03-27T14:48:55.524Z,5.20
2019-03-27T14:51:22.756Z,5.28
2019-03-27T14:53:50.090Z,5.35
2019-03-27T14:56:17.411Z,4.85
2019-03-27T14:58:45.584Z,5.40
2019-03-27T15:01:12.931Z,4.72
2019-03-27T15:03:40.251Z,4.25
2019-03-27T15:06:07.587Z,3.85
2019-03-27T15:08:34.892Z,4.22
2019-03-27T15:11:02.175Z,4.33
2019-03-27T15:13:29.492Z,4.00
2019-03-27T15:15:56.827Z,3.67
2019-03-27T15:18:24.130Z,4.50
2019-03-27T15:20:51.457Z,4.15
2019-03-27T15:23:18.784Z,4.33
2019-03-27T15:25:46.017Z,4.20
2019-03-27T15:28:13.223Z,4.33
2019-03-27T15:30:40.443Z,4.53
2019-03-27T15:33:07.661Z,4.80
2019-03-27T15:35:34.885Z,5.25
2019-03-27T15:38:02.101Z,4.28
2019-03-27T15:40:43.110Z,4.25
2019-03-27T15:43:10.395Z,4.17
2019-03-27T15:45:37.741Z,4.50
2019-03-27T15:48:05.620Z,4.42
2019-03-27T15:50:33.085Z,4.80
2019-03-27T15:53:00.424Z,5.22
2019-03-27T15:55:27.656Z,5.83
2019-03-27T15:57:55.002Z,4.78
2019-03-27T16:00:22.432Z,4.30
2019-03-27T16:02:49.654Z,5.62
2019-03-27T16:05:16.975Z,4.70
2019-03-27T16:07:44.304Z,5.45
2019-03-27T16:10:11.819Z,4.65
2019-03-27T16:12:39.042Z,4.03
2019-03-27T16:15:08.135Z,4.62
2019-03-27T16:17:35.471Z,4.30
2019-03-27T16:20:02.989Z,4.75
2019-03-27T16:22:30.317Z,4.40
2019-03-27T16:24:57.697Z,4.47
2019-03-27T16:27:44.276Z,4.15
2019-03-27T16:30:11.691Z,4.37
2019-03-27T16:32:38.928Z,4.12
2019-03-27T16:35:07.345Z,3.85
2019-03-27T16:37:34.674Z,4.03
2019-03-27T16:40:01.993Z,4.10
2019-03-27T16:42:29.325Z,4.33
2019-03-27T16:44:56.618Z,4.12
2019-03-27T16:47:24.047Z,4.12
2019-03-27T16:49:51.357Z,4.08
2019-03-27T16:52:18.671Z,4.90
2019-03-27T16:54:45.978Z,4.50
2019-03-27T16:57:13.320Z,5.10
2019-03-27T16:59:40.628Z,5.05
2019-03-27T17:02:07.957Z,5.05
2019-03-27T17:04:35.268Z,4.55
2019-03-27T17:07:02.615Z,4.42
2019-03-27T17:09:29.811Z,4.10
2019-03-27T17:11:57.054Z,4.42
2019-03-27T17:14:24.281Z,4.17
2019-03-27T17:16:51.596Z,4.28
2019-03-27T17:19:18.925Z,4.55
2019-03-27T17:21:46.248Z,4.67
2019-03-27T17:24:13.590Z,4.60
2019-03-27T17:26:40.884Z,5.45
2019-03-27T17:29:08.112Z,4.10
2019-03-27T17:31:35.443Z,8.90
2019-03-27T17:34:02.875Z,5.33
2019-03-27T17:36:30.179Z,10.43
2019-03-27T17:38:57.528Z,13.00
2019-03-27T17:41:28.095Z,11.88
2019-03-27T17:43:53.947Z,6.12
2019-03-27T17:46:21.264Z,7.12
2019-03-27T17:48:48.597Z,14.28
2019-03-27T17:51:15.801Z,7.03
2019-03-27T17:53:43.129Z,8.13
2019-03-27T17:56:10.436Z,11.55
2019-03-27T17:58:37.770Z,8.28
2019-03-27T18:01:05.177Z,13.55
2019-03-27T18:03:32.499Z,6.35
2019-03-27T18:05:59.832Z,15.93
2019-03-27T18:08:27.135Z,6.47
2019-03-27T18:10:54.468Z,5.65
2019-03-27T18:13:21.795Z,6.35
2019-03-27T18:15:48.994Z,6.35
2019-03-27T18:18:16.312Z,7.72
2019-03-27T18:20:43.541Z,6.55
2019-03-27T18:23:10.885Z,5.50
2019-03-27T18:25:38.197Z,6.62
2019-03-27T18:28:05.418Z,6.92
2019-03-27T18:30:32.736Z,6.08
2019-03-27T18:33:00.044Z,5.25
2019-03-27T18:35:27.380Z,6.20
2019-03-27T18:37:54.600Z,5.90
2019-03-27T18:40:21.801Z,6.10
2019-03-27T18:42:49.021Z,6.37
2019-03-27T18:45:16.310Z,7.75
2019-03-27T18:47:43.640Z,9.68
2019-03-27T18:50:10.984Z,7.75
2019-03-27T18:52:38.297Z,7.17
2019-03-27T18:55:06.534Z,7.47
2019-03-27T18:57:33.751Z,8.13
2019-03-27T19:00:01.055Z,8.75
2019-03-27T19:02:28.266Z,8.80
2019-03-27T19:04:55.596Z,9.53
2019-03-27T19:07:22.798Z,12.55
2019-03-27T19:09:50.145Z,7.83
2019-03-27T19:12:17.361Z,9.18
2019-03-27T19:14:44.589Z,10.90
2019-03-27T19:17:11.887Z,8.83
2019-03-27T19:19:39.237Z,9.45
2019-03-27T19:22:06.536Z,9.20
2019-03-27T19:24:33.855Z,7.62
2019-03-27T19:27:01.189Z,6.62
2019-03-27T19:29:28.496Z,7.12
2019-03-27T19:31:55.812Z,8.15
2019-03-27T19:34:23.138Z,8.18
2019-03-27T19:36:50.345Z,6.90
2019-03-27T19:39:17.669Z,6.90
2019-03-27T19:41:44.872Z,7.83
2019-03-27T19:44:12.201Z,8.20
2019-03-27T19:46:39.293Z,6.67
2019-03-27T19:49:06.502Z,9.40
2019-03-27T19:51:33.891Z,9.13
2019-03-27T19:54:01.241Z,7.58
2019-03-27T19:56:28.542Z,7.47
2019-03-27T19:58:55.875Z,7.37
2019-03-27T20:01:23.168Z,7.45
2019-03-27T20:03:50.494Z,7.20
2019-03-27T20:06:17.802Z,7.58
2019-03-27T20:08:45.125Z,7.50
2019-03-27T20:11:12.438Z,8.35
2019-03-27T20:13:39.660Z,8.25
2019-03-27T20:16:06.967Z,6.72
2019-03-27T20:18:34.292Z,12.28
2019-03-27T20:21:01.590Z,24.15
2019-03-27T20:23:28.809Z,9.15
2019-03-27T20:25:56.107Z,9.93
2019-03-27T20:28:24.098Z,17.92
2019-03-27T20:30:51.553Z,10.53
2019-03-27T20:33:18.856Z,10.70
2019-03-27T20:35:46.186Z,10.30
2019-03-27T20:38:13.508Z,8.53
2019-03-27T20:40:40.719Z,12.90
2019-03-27T20:43:08.024Z,11.57
2019-03-27T20:45:35.365Z,14.03
2019-03-27T20:48:02.667Z,16.67
2019-03-27T20:50:29.887Z,12.78
2019-03-27T20:52:57.258Z,9.65
2019-03-27T20:55:30.050Z,8.93
2019-03-27T20:57:53.581Z,8.05
2019-03-27T21:00:20.895Z,8.78
2019-03-27T21:02:48.199Z,9.10
2019-03-27T21:05:15.515Z,8.58
2019-03-27T21:07:42.815Z,8.70
2019-03-27T21:10:10.554Z,8.18
2019-03-27T21:12:37.852Z,7.90
2019-03-27T21:15:05.608Z,8.58
2019-03-27T21:17:32.845Z,7.90
2019-03-27T21:20:00.387Z,8.25
2019-03-27T21:22:27.739Z,8.38
2019-03-27T21:25:07.669Z,8.30
2019-03-27T21:27:24.303Z,8.55
2019-03-27T21:29:51.621Z,8.55
2019-03-27T21:32:19.023Z,9.23
2019-03-27T21:34:46.350Z,8.13
2019-03-27T21:37:13.711Z,9.50
2019-03-27T21:39:40.944Z,8.88
2019-03-27T21:42:08.231Z,8.45
2019-03-27T21:44:35.586Z,8.00
2019-03-27T21:47:02.917Z,9.15
2019-03-27T21:49:30.230Z,9.33
2019-03-27T21:51:57.427Z,8.50
2019-03-27T21:54:24.679Z,9.78
2019-03-27T21:56:51.980Z,9.40
2019-03-27T21:59:19.308Z,8.75
2019-03-27T22:01:46.647Z,9.58
2019-03-27T22:04:13.976Z,8.50
2019-03-27T22:06:41.181Z,9.90
2019-03-27T22:09:08.506Z,11.15
2019-03-27T22:11:35.792Z,10.10
2019-03-27T22:14:03.170Z,10.95
2019-03-27T22:16:30.470Z,12.33
2019-03-27T22:18:57.814Z,12.00
2019-03-27T22:21:25.022Z,13.80
2019-03-27T22:23:52.611Z,12.05
2019-03-27T22:26:19.945Z,13.68
2019-03-27T22:28:47.256Z,13.08
2019-03-27T22:31:14.491Z,11.63
2019-03-27T22:33:41.796Z,13.25
2019-03-27T22:36:09.117Z,13.03
2019-03-27T22:38:36.426Z,11.33
2019-03-27T22:41:03.744Z,13.20
2019-03-27T22:43:30.951Z,11.88
2019-03-27T22:45:58.283Z,12.18
2019-03-27T22:48:25.587Z,12.40
2019-03-27T22:50:52.909Z,12.95
2019-03-27T22:53:20.203Z,12.98
2019-03-27T22:55:50.237Z,12.45
2019-03-27T22:58:16.789Z,12.90
2019-03-27T23:00:47.641Z,13.83
2019-03-27T23:03:18.500Z,14.35
2019-03-27T23:05:44.500Z,15.45
2019-03-27T23:08:11.805Z,13.62
2019-03-27T23:10:39.128Z,15.05
2019-03-27T23:13:06.430Z,16.30
2019-03-27T23:15:33.758Z,15.03
2019-03-27T23:18:01.068Z,16.85
2019-03-27T23:20:28.388Z,17.35
2019-03-27T23:22:55.689Z,17.23
2019-03-27T23:25:22.926Z,17.02
2019-03-27T23:27:50.237Z,17.55
2019-03-27T23:30:17.567Z,19.50
2019-03-27T23:32:44.879Z,18.70
2019-03-27T23:35:12.205Z,18.67
2019-03-27T23:37:39.535Z,17.48
2019-03-27T23:40:07.371Z,19.07
2019-03-27T23:42:34.588Z,19.50
2019-03-27T23:45:01.931Z,21.50
2019-03-27T23:47:29.230Z,22.58
2019-03-27T23:49:56.460Z,21.23
2019-03-27T23:52:23.766Z,22.07
2019-03-27T23:54:51.098Z,23.80
2019-03-27T23:57:18.297Z,22.98
2019-03-27T23:59:45.522Z,23.77
